Time;durP1;ratioP1;P1;durP2;ratioP2;P2;SDS_P1;SDS_P2;PMS_P1;PMS_P2;Temp;Humidity;BMP_temperature;BMP_pressure;BME280_temperature;BME280_humidity;BME280_pressure;Samples;Min_cycle;Max_cycle;Signal;HPM_P1;HPM_P2
2024/03/24 00:02:21;;;;;;;20.33;13.05;;;;;;;;;;5071513;28;20039;-68
2024/03/24 00:05:26;;;;;;;12.20;7.07;;;;;;;;;;5071694;28;20055;-67
2024/03/24 00:08:31;;;;;;;7.85;4.28;;;16.10;98.70;;;;;;5070351;28;20041;-68
2024/03/24 00:11:35;;;;;;;13.70;4.10;;;;;;;;;;5071070;28;20043;-69
2024/03/24 00:14:40;;;;;;;11.13;3.53;;;;;;;;;;5071221;28;20044;-69
2024/03/24 00:17:44;;;;;;;7.53;2.90;;;;;;;;;;5071400;28;20048;-69
2024/03/24 00:20:49;;;;;;;9.10;3.50;;;;;;;;;;5071263;28;20041;-69
2024/03/24 00:23:53;;;;;;;8.77;3.20;;;;;;;;;;5070436;28;20032;-68
2024/03/24 00:26:57;;;;;;;4.57;2.83;;;;;;;;;;5071059;28;20044;-69
2024/03/24 00:30:01;;;;;;;9.57;3.35;;;;;;;;;;5071220;28;20036;-69
2024/03/24 00:33:06;;;;;;;8.18;2.80;;;;;;;;;;5070886;28;20048;-69
2024/03/24 00:36:10;;;;;;;8.60;2.88;;;;;;;;;;5070639;28;20032;-69
2024/03/24 00:39:14;;;;;;;8.13;3.03;;;;;;;;;;5071152;28;20041;-69
2024/03/24 00:42:19;;;;;;;10.93;3.00;;;;;;;;;;5070687;28;20028;-69
2024/03/24 00:45:23;;;;;;;6.38;2.70;;;;;;;;;;5070982;28;20040;-69
2024/03/24 00:48:28;;;;;;;14.32;3.10;;;;;;;;;;5070783;28;20366;-69
2024/03/24 00:51:33;;;;;;;6.47;2.45;;;;;;;;;;5070525;28;20485;-69
2024/03/24 00:54:37;;;;;;;5.57;2.60;;;;;;;;;;5070609;28;20048;-69
2024/03/24 00:57:41;;;;;;;5.30;2.70;;;;;;;;;;5070492;28;20377;-68
2024/03/24 01:00:46;;;;;;;8.02;3.10;;;;;;;;;;5069820;28;20040;-69
2024/03/24 01:03:52;;;;;;;9.30;2.53;;;16.00;99.20;;;;;;5070351;28;20037;-69
2024/03/24 01:06:57;;;;;;;6.05;2.60;;;;;;;;;;5069961;28;20047;-69
2024/03/24 01:10:02;;;;;;;8.35;2.65;;;;;;;;;;5070768;28;20040;-69
2024/03/24 01:13:06;;;;;;;8.52;2.83;;;;;;;;;;5069271;28;20040;-69
2024/03/24 01:16:11;;;;;;;7.68;2.85;;;;;;;;;;5070625;28;20040;-69
2024/03/24 01:19:15;;;;;;;9.45;2.50;;;;;;;;;;5070511;28;20609;-69
2024/03/24 01:22:19;;;;;;;6.68;2.58;;;;;;;;;;5070481;28;20036;-69
2024/03/24 01:25:24;;;;;;;7.20;2.40;;;;;;;;;;5070447;28;20036;-68
2024/03/24 01:28:28;;;;;;;7.10;3.00;;;;;;;;;;5070610;28;20586;-69
2024/03/24 01:31:32;;;;;;;6.78;2.50;;;;;;;;;;5070279;28;20036;-69
2024/03/24 01:34:36;;;;;;;15.57;8.32;;;;;;;;;;5070605;28;20037;-69
2024/03/24 01:37:41;;;;;;;15.40;7.68;;;;;;;;;;5070517;28;20039;-69
2024/03/24 01:40:49;;;;;;;15.70;9.00;;;15.70;99.00;;;;;;5070188;28;20040;-68
2024/03/24 01:43:53;;;;;;;17.23;10.30;;;;;;;;;;5070513;28;20051;-69
2024/03/24 01:46:58;;;;;;;17.50;9.93;;;;;;;;;;5070274;28;20059;-69
2024/03/24 01:50:04;;;;;;;20.13;10.45;;;;;;;;;;5061989;28;20036;-69
2024/03/24 01:53:10;;;;;;;17.65;9.60;;;14.00;98.80;;;;;;5073847;28;20158;-69
2024/03/24 01:56:14;;;;;;;13.10;8.85;;;;;;;;;;5074116;28;20040;-69
2024/03/24 01:59:19;;;;;;;20.23;9.30;;;;;;;;;;5073771;28;20392;-69
2024/03/24 02:02:23;;;;;;;16.80;8.45;;;;;;;;;;5073935;28;20039;-68
2024/03/24 02:05:27;;;;;;;17.20;8.68;;;15.10;99.40;;;;;;5073701;28;20412;-69
2024/03/24 02:08:32;;;;;;;16.60;8.80;;;15.30;99.50;;;;;;5073566;28;20039;-69
2024/03/24 02:11:36;;;;;;;13.32;8.85;;;15.30;99.60;;;;;;5073699;28;20047;-69
2024/03/24 02:14:41;;;;;;;18.77;9.63;;;;;;;;;;5072869;28;20404;-69
2024/03/24 02:17:45;;;;;;;14.90;8.40;;;;;;;;;;5074280;28;20370;-69
2024/03/24 02:20:50;;;;;;;13.02;7.90;;;;;;;;;;5072650;28;20052;-69
2024/03/24 02:23:54;;;;;;;17.80;8.00;;;;;;;;;;5073251;28;20036;-69
2024/03/24 02:26:58;;;;;;;16.38;8.18;;;;;;;;;;5072583;28;20052;-69
2024/03/24 02:30:03;;;;;;;20.38;7.80;;;;;;;;;;5073593;28;20495;-69
2024/03/24 02:33:08;;;;;;;18.33;8.90;;;;;;;;;;5073239;28;20040;-69
2024/03/24 02:36:12;;;;;;;13.60;7.60;;;;;;;;;;5073152;28;20041;-69
2024/03/24 02:39:17;;;;;;;12.43;7.25;;;;;;;;;;5073596;28;20396;-69
2024/03/24 02:42:21;;;;;;;14.27;7.07;;;;;;;;;;5073061;28;20028;-69
2024/03/24 02:45:25;;;;;;;17.25;7.55;;;;;;;;;;5073126;28;20041;-69
2024/03/24 02:48:30;;;;;;;12.93;7.63;;;;;;;;;;5073252;28;20041;-69
2024/03/24 02:51:34;;;;;;;14.55;7.57;;;;;;;;;;5073101;28;20146;-69
2024/03/24 02:54:38;;;;;;;17.05;8.48;;;;;;;;;;5072326;28;20055;-68
2024/03/24 02:57:42;;;;;;;18.73;8.07;;;;;;;;;;5073121;28;20040;-69
2024/03/24 03:00:47;;;;;;;13.60;7.25;;;;;;;;;;5072886;28;20040;-69
2024/03/24 03:03:51;;;;;;;13.55;8.18;;;;;;;;;;5060722;28;20043;-69
2024/03/24 03:06:55;;;;;;;14.60;7.88;;;;;;;;;;5072783;28;20104;-68
2024/03/24 03:10:00;;;;;;;14.40;9.02;;;;;;;;;;5072758;28;20059;-69
2024/03/24 03:13:04;;;;;;;16.35;8.50;;;;;;;;;;5071676;28;20056;-69
2024/03/24 03:16:09;;;;;;;16.13;9.30;;;;;;;;;;5072851;28;20033;-69
2024/03/24 03:19:13;;;;;;;13.10;8.35;;;;;;;;;;5072600;28;20065;-69
2024/03/24 03:22:17;;;;;;;16.73;8.10;;;;;;;;;;5071543;28;20055;-69
2024/03/24 03:25:22;;;;;;;15.18;7.30;;;;;;;;;;5072208;28;20029;-69
2024/03/24 03:28:29;;;;;;;13.13;8.45;;;;;;;;;;5071603;28;20045;-69
2024/03/24 03:31:33;;;;;;;15.93;8.27;;;;;;;;;;5071953;28;20041;-69
2024/03/24 03:34:37;;;;;;;14.35;7.93;;;;;;;;;;5071430;28;20045;-69
2024/03/24 03:37:41;;;;;;;14.65;7.78;;;;;;;;;;5071900;28;20051;-69
2024/03/24 03:40:46;;;;;;;12.68;6.60;;;;;;;;;;5071898;28;20392;-69
2024/03/24 03:43:50;;;;;;;11.85;5.72;;;;;;;;;;5071419;28;20709;-69
2024/03/24 03:46:54;;;;;;;11.65;5.88;;;;;;;;;;5072098;28;20040;-69
2024/03/24 03:50:00;;;;;;;8.63;5.68;;;;;;;;;;5071204;28;20052;-68
2024/03/24 03:53:06;;;;;;;11.40;6.22;;;;;;;;;;5071791;28;20040;-69
2024/03/24 03:56:11;;;;;;;11.30;5.18;;;;;;;;;;5071804;28;20365;-69
2024/03/24 03:59:15;;;;;;;9.20;4.53;;;;;;;;;;5071676;28;20045;-69
2024/03/24 04:02:19;;;;;;;9.02;5.18;;;;;;;;;;5071816;28;20044;-69
2024/03/24 04:05:23;;;;;;;9.60;4.70;;;;;;;;;;5071848;28;20041;-69
2024/03/24 04:08:28;;;;;;;7.95;5.03;;;;;;;;;;5071463;28;20037;-69
2024/03/24 04:11:32;;;;;;;14.70;4.47;;;;;;;;;;5070894;28;20028;-69
2024/03/24 04:14:37;;;;;;;12.05;4.55;;;;;;;;;;5071366;28;20061;-69
2024/03/24 04:17:41;;;;;;;9.45;4.20;;;;;;;;;;5071985;28;20543;-69
2024/03/24 04:20:46;;;;;;;10.13;4.18;;;;;;;;;;5071263;28;20032;-69
2024/03/24 04:23:51;;;;;;;74.57;44.22;;;15.30;98.90;;;;;;5071538;28;20037;-68
2024/03/24 04:26:56;;;;;;;18.30;9.55;;;;;;;;;;5071252;28;20060;-68
2024/03/24 04:30:00;;;;;;;17.60;10.50;;;;;;;;;;5071587;28;20041;-68
2024/03/24 04:33:04;;;;;;;14.35;6.30;;;;;;;;;;5070342;28;20051;-68
2024/03/24 04:36:09;;;;;;;13.70;6.60;;;;;;;;;;5071288;28;20389;-68
2024/03/24 04:39:18;;;;;;;10.45;5.93;;;;;;;;;;5071252;28;20040;-68
2024/03/24 04:42:24;;;;;;;26.95;7.32;;;;;;;;;;5059680;28;20040;-68
2024/03/24 04:45:28;;;;;;;17.17;8.30;;;;;;;;;;5071276;28;20035;-68
2024/03/24 04:48:33;;;;;;;13.73;8.07;;;;;;;;;;5071101;28;20047;-69
2024/03/24 04:51:37;;;;;;;11.10;7.65;;;;;;;;;;5070272;28;20523;-68
2024/03/24 04:54:41;;;;;;;12.20;5.70;;;;;;;;;;5070492;28;20416;-67
2024/03/24 04:57:46;;;;;;;12.25;5.55;;;;;;;;;;5070312;28;20059;-67
2024/03/24 05:00:53;;;;;;;13.57;4.65;;;;;;;;;;5070934;28;20041;-69
2024/03/24 05:03:58;;;;;;;9.48;4.35;;;;;;;;;;5058715;28;20040;-69
2024/03/24 05:07:03;;;;;;;8.23;4.00;;;;;;;;;;5070144;28;20036;-69
2024/03/24 05:10:07;;;;;;;8.50;3.75;;;;;;;;;;5070795;28;20028;-69
2024/03/24 05:13:12;;;;;;;10.02;5.40;;;;;;;;;;5070626;28;20048;-67
2024/03/24 05:16:17;;;;;;;11.38;5.18;;;;;;;;;;5070895;28;20394;-69
2024/03/24 05:19:21;;;;;;;10.23;5.15;;;;;;;;;;5070895;28;20392;-69
2024/03/24 05:22:25;;;;;;;11.50;4.97;;;;;;;;;;5071602;28;20354;-69
2024/03/24 05:25:30;;;;;;;9.98;5.07;;;15.10;99.80;;;;;;5075035;28;20479;-69
2024/03/24 05:28:34;;;;;;;11.88;6.03;;;;;;;;;;5075015;28;20056;-69
2024/03/24 05:31:45;;;;;;;16.70;7.85;;;15.20;99.90;;;;;;5074676;28;20380;-69
2024/03/24 05:34:52;;;;;;;12.77;6.72;;;;;;;;;;5074820;28;20055;-68
2024/03/24 05:37:57;;;;;;;10.35;4.90;;;;;;;;;;5074631;28;20059;-67
2024/03/24 05:41:06;;;;;;;10.38;4.28;;;15.30;99.30;;;;;;5074567;28;20036;-69
2024/03/24 05:44:11;;;;;;;8.48;3.33;;;;;;;;;;5074521;28;20499;-69
2024/03/24 05:47:15;;;;;;;11.60;4.00;;;;;;;;;;5074440;28;20040;-68
2024/03/24 05:50:20;;;;;;;12.30;3.60;;;;;;;;;;5073213;28;20496;-69
2024/03/24 05:53:24;;;;;;;7.30;3.53;;;;;;;;;;5074065;28;20055;-69
2024/03/24 05:56:29;;;;;;;15.80;4.30;;;;;;;;;;5073855;28;20032;-69
2024/03/24 05:59:33;;;;;;;11.07;3.70;;;;;;;;;;5074166;28;20148;-69
2024/03/24 06:02:37;;;;;;;12.27;3.72;;;;;;;;;;5073884;28;20501;-70
2024/03/24 06:05:42;;;;;;;12.77;4.32;;;;;;;;;;5074034;28;20047;-69
2024/03/24 06:08:48;;;;;;;9.23;4.30;;;;;;;;;;5074019;28;20040;-69
2024/03/24 06:11:54;;;;;;;8.90;4.13;;;15.80;99.70;;;;;;5074017;28;20032;-69
2024/03/24 06:14:59;;;;;;;8.43;4.18;;;;;;;;;;5073878;28;20044;-69
2024/03/24 06:18:07;;;;;;;10.23;4.40;;;;;;;;;;5061846;28;20465;-69
2024/03/24 06:21:11;;;;;;;8.95;5.00;;;;;;;;;;5073849;28;20035;-69
2024/03/24 06:24:18;;;;;;;13.45;4.57;;;16.00;99.70;;;;;;5073121;28;20041;-69
2024/03/24 06:27:22;;;;;;;15.30;6.45;;;;;;;;;;5072522;28;20539;-69
2024/03/24 06:30:27;;;;;;;14.93;6.90;;;;;;;;;;5072543;28;20040;-69
2024/03/24 06:33:31;;;;;;;14.18;5.80;;;;;;;;;;5071748;28;20386;-69
2024/03/24 06:36:40;;;;;;;15.35;5.63;;;;;;;;;;5072489;28;20033;-69
2024/03/24 06:39:44;;;;;;;10.32;5.40;;;;;;;;;;5072201;28;20043;-69
2024/03/24 06:42:59;;;;;;;13.20;5.10;;;;;;;;;;5072177;28;20040;-69
2024/03/24 06:46:04;;;;;;;13.60;5.35;;;;;;;;;;5071998;28;20494;-69
2024/03/24 06:49:08;;;;;;;11.32;6.45;;;;;;;;;;5072114;28;20041;-69
2024/03/24 06:52:13;;;;;;;9.63;4.97;;;;;;;;;;5071837;28;20035;-69
2024/03/24 06:55:17;;;;;;;11.40;3.50;;;;;;;;;;5071006;28;20417;-69
2024/03/24 06:58:21;;;;;;;10.98;4.00;;;;;;;;;;5071796;28;20033;-69
2024/03/24 07:01:25;;;;;;;14.30;4.45;;;;;;;;;;5072062;28;20036;-69
2024/03/24 07:04:31;;;;;;;11.52;4.15;;;;;;;;;;5072046;28;20044;-69
2024/03/24 07:07:36;;;;;;;15.07;4.10;;;;;;;;;;5059435;28;20041;-69
2024/03/24 07:10:40;;;;;;;10.20;4.22;;;;;;;;;;5071757;28;20044;-69
2024/03/24 07:13:44;;;;;;;14.88;4.35;;;;;;;;;;5070442;28;20057;-69
2024/03/24 07:16:48;;;;;;;16.27;4.38;;;;;;;;;;5071648;28;20032;-69
2024/03/24 07:19:53;;;;;;;18.30;4.53;;;;;;;;;;5070782;28;20032;-69
2024/03/24 07:22:58;;;;;;;19.98;5.25;;;;;;;;;;5071529;28;20036;-69
2024/03/24 07:26:03;;;;;;;17.07;4.83;;;;;;;;;;5032014;28;1119442;-69
2024/03/24 07:29:08;;;;;;;17.92;4.75;;;;;;;;;;5071420;28;20051;-69
2024/03/24 07:32:12;;;;;;;22.45;4.85;;;;;;;;;;5072238;28;20036;-69
2024/03/24 07:35:16;;;;;;;30.63;5.68;;;;;;;;;;5072169;28;20047;-69
2024/03/24 07:38:21;;;;;;;20.38;5.07;;;;;;;;;;5072230;28;20040;-69
2024/03/24 07:41:25;;;;;;;22.80;5.28;;;;;;;;;;5071366;28;20507;-69
2024/03/24 07:44:30;;;;;;;19.92;4.43;;;;;;;;;;5071650;28;20048;-69
2024/03/24 07:47:35;;;;;;;19.73;4.75;;;;;;;;;;5071837;28;20640;-67
2024/03/24 07:50:40;;;;;;;21.58;4.15;;;;;;;;;;5071165;28;20040;-69
2024/03/24 07:53:44;;;;;;;13.13;3.10;;;;;;;;;;5071720;28;20662;-69
2024/03/24 07:56:48;;;;;;;17.60;4.70;;;;;;;;;;5071565;28;20037;-69
2024/03/24 07:59:53;;;;;;;16.52;3.70;;;;;;;;;;5071821;28;20045;-67
2024/03/24 08:02:57;;;;;;;19.33;3.53;;;;;;;;;;5071475;28;20044;-69
2024/03/24 08:06:01;;;;;;;15.40;3.63;;;;;;;;;;5071555;28;20036;-69
2024/03/24 08:09:06;;;;;;;11.70;3.08;;;;;;;;;;5071435;28;20032;-67
2024/03/24 08:12:10;;;;;;;15.02;3.58;;;;;;;;;;5071568;28;20051;-69
2024/03/24 08:15:15;;;;;;;17.10;3.28;;;;;;;;;;5071611;28;20048;-67
2024/03/24 08:18:19;;;;;;;12.27;3.00;;;;;;;;;;5070751;28;20400;-67
2024/03/24 08:21:24;;;;;;;15.98;3.50;;;17.70;88.70;;;;;;5071361;28;20037;-67
2024/03/24 08:24:29;;;;;;;14.70;3.83;;;;;;;;;;5071120;28;20044;-67
2024/03/24 08:27:34;;;;;;;24.45;3.35;;;;;;;;;;5070845;28;20044;-67
2024/03/24 08:30:42;;;;;;;14.75;3.15;;;;;;;;;;5071124;28;20036;-67
2024/03/24 08:33:46;;;;;;;26.50;3.97;;;;;;;;;;5070028;28;20045;-67
2024/03/24 08:36:50;;;;;;;18.13;3.28;;;;;;;;;;5070323;28;20051;-67
2024/03/24 08:39:54;;;;;;;22.13;3.72;;;;;;;;;;5070972;28;20404;-67
2024/03/24 08:42:59;;;;;;;17.17;3.17;;;;;;;;;;5071093;28;20040;-67
2024/03/24 08:46:03;;;;;;;18.90;3.50;;;;;;;;;;5070918;28;20040;-67
2024/03/24 08:49:08;;;;;;;26.35;4.43;;;;;;;;;;5071045;28;20103;-67
2024/03/24 08:52:12;;;;;;;22.70;5.03;;;;;;;;;;5070013;28;20041;-67
2024/03/24 08:55:16;;;;;;;18.45;3.40;;;;;;;;;;5058683;28;20369;-67
2024/03/24 08:58:21;;;;;;;18.77;3.60;;;;;;;;;;5071225;28;20036;-67
2024/03/24 09:01:25;;;;;;;14.80;3.45;;;;;;;;;;5070673;28;20048;-67
2024/03/24 09:04:29;;;;;;;13.98;3.15;;;;;;;;;;5070671;28;20047;-67
2024/03/24 09:07:34;;;;;;;23.38;4.15;;;;;;;;;;5069997;28;20046;-68
2024/03/24 09:10:38;;;;;;;13.75;2.78;;;;;;;;;;5070806;28;20392;-67
2024/03/24 09:13:43;;;;;;;17.30;3.75;;;;;;;;;;5070366;28;20045;-67
2024/03/24 09:16:47;;;;;;;19.83;2.90;;;;;;;;;;5070738;28;20037;-68
2024/03/24 09:19:51;;;;;;;16.45;3.75;;;;;;;;;;5070746;28;20039;-67
2024/03/24 09:22:55;;;;;;;16.42;7.80;;;;;;;;;;5070512;28;20051;-67
2024/03/24 09:26:00;;;;;;;18.25;4.03;;;;;;;;;;5069317;28;20509;-67
2024/03/24 09:29:04;;;;;;;14.02;3.20;;;;;;;;;;5057850;28;20040;-67
2024/03/24 09:32:09;;;;;;;23.30;3.13;;;;;;;;;;5070408;28;20342;-68
2024/03/24 09:35:13;;;;;;;11.70;2.45;;;;;;;;;;5069633;28;20049;-68
2024/03/24 09:38:17;;;;;;;23.15;7.47;;;;;;;;;;5070400;28;20044;-69
2024/03/24 09:41:26;;;;;;;20.92;3.78;;;21.30;85.70;;;;;;5070342;28;20500;-69
2024/03/24 09:44:30;;;;;;;19.42;4.90;;;21.20;84.60;;;;;;5069586;28;20051;-67
2024/03/24 09:47:35;;;;;;;13.00;3.47;;;;;;;;;;5070296;28;20043;-67
2024/03/24 09:50:39;;;;;;;16.83;3.83;;;;;;;;;;5070123;28;20035;-66
2024/03/24 09:53:44;;;;;;;22.40;4.15;;;;;;;;;;5070198;28;20048;-67
2024/03/24 09:56:48;;;;;;;13.98;2.88;;;;;;;;;;5069289;28;20044;-67
2024/03/24 09:59:55;;;;;;;14.93;2.83;;;21.70;81.70;;;;;;5070080;28;20052;-67
2024/03/24 10:02:59;;;;;;;11.95;3.45;;;21.80;82.10;;;;;;5070269;28;20059;-69
2024/03/24 10:06:05;;;;;;;16.63;3.88;;;22.00;82.60;;;;;;5069993;28;20040;-68
2024/03/24 10:09:09;;;;;;;12.50;2.80;;;;;;;;;;5072201;28;20040;-69
2024/03/24 10:12:14;;;;;;;15.27;3.40;;;;;;;;;;5073724;28;20037;-67
2024/03/24 10:15:29;;;;;;;14.52;2.92;;;21.70;83.00;;;;;;5072859;28;20044;-67
2024/03/24 10:18:33;;;;;;;10.30;2.78;;;;;;;;;;5073601;28;20052;-67
2024/03/24 10:21:38;;;;;;;15.55;2.70;;;;;;;;;;5072265;28;20036;-68
2024/03/24 10:24:45;;;;;;;9.15;2.50;;;21.40;84.30;;;;;;5073247;28;20035;-67
2024/03/24 10:27:51;;;;;;;17.67;3.35;;;;;;;;;;5072965;28;20059;-67
2024/03/24 10:31:08;;;;;;;12.40;3.88;;;17.20;83.40;;;;;;5072327;28;20059;-67
2024/03/24 10:34:13;;;;;;;15.70;2.83;;;;;;;;;;5073256;28;20408;-67
2024/03/24 10:37:18;;;;;;;13.90;3.83;;;;;;;;;;5073317;28;20028;-68
2024/03/24 10:40:22;;;;;;;14.07;3.45;;;;;;;;;;5073161;28;20055;-68
2024/03/24 10:43:27;;;;;;;14.73;3.58;;;;;;;;;;5073025;28;20039;-68
2024/03/24 10:46:32;;;;;;;13.77;3.03;;;;;;;;;;5073081;28;20044;-68
2024/03/24 10:49:39;;;;;;;11.60;3.28;;;20.10;88.30;;;;;;5072814;28;20045;-68
2024/03/24 10:52:46;;;;;;;17.40;3.85;;;19.30;88.20;;;;;;5072923;28;20044;-68
2024/03/24 10:55:52;;;;;;;17.08;3.92;;;20.10;87.50;;;;;;5072827;28;20056;-68
2024/03/24 10:58:56;;;;;;;18.77;3.72;;;;;;;;;;5071813;28;20472;-68
2024/03/24 11:02:00;;;;;;;18.55;5.13;;;;;;;;;;5072896;28;20040;-68
2024/03/24 11:05:07;;;;;;;14.57;3.97;;;20.50;88.80;;;;;;5072650;28;20402;-68
2024/03/24 11:08:15;;;;;;;13.80;3.08;;;;;;;;;;5072849;28;20055;-68
2024/03/24 11:11:19;;;;;;;16.17;4.40;;;;;;;;;;5072102;28;20044;-68
2024/03/24 11:14:24;;;;;;;16.70;4.18;;;;;;;;;;5072039;28;20507;-68
2024/03/24 11:17:28;;;;;;;17.77;3.20;;;;;;;;;;5072248;28;20147;-68
2024/03/24 11:20:34;;;;;;;16.83;3.33;;;;;;;;;;5070961;28;20040;-68
2024/03/24 11:23:40;;;;;;;18.55;3.35;;;20.00;90.10;;;;;;5072482;28;20520;-68
2024/03/24 11:26:46;;;;;;;12.07;3.47;;;20.70;90.20;;;;;;5071381;28;20056;-68
2024/03/24 11:29:51;;;;;;;24.73;3.58;;;;;;;;;;5071284;28;20067;-68
2024/03/24 11:33:00;;;;;;;12.93;4.30;;;;;;;;;;5071342;28;20032;-68
2024/03/24 11:36:16;;;;;;;16.27;3.08;;;20.60;90.40;;;;;;5071280;28;20055;-68
2024/03/24 11:39:20;;;;;;;25.20;5.00;;;;;;;;;;5072058;28;20428;-68
2024/03/24 11:42:31;;;;;;;26.80;4.95;;;20.30;91.00;;;;;;5072163;28;20037;-68
2024/03/24 11:45:36;;;;;;;26.30;3.93;;;;;;;;;;5071758;28;20059;-68
2024/03/24 11:48:41;;;;;;;18.17;4.43;;;;;;;;;;5071883;28;20688;-68
2024/03/24 11:51:45;;;;;;;22.10;4.40;;;;;;;;;;5071568;28;20040;-68
2024/03/24 11:54:50;;;;;;;23.88;5.47;;;20.20;90.60;;;;;;5070695;28;20060;-68
2024/03/24 11:57:54;;;;;;;17.98;5.55;;;;;;;;;;5071600;28;20043;-68
2024/03/24 12:01:00;;;;;;;14.07;5.57;;;;;;;;;;5071669;28;20057;-68
2024/03/24 12:04:04;;;;;;;23.05;7.05;;;;;;;;;;5071485;28;20039;-68
2024/03/24 12:07:09;;;;;;;25.13;5.93;;;;;;;;;;5071516;28;20036;-68
2024/03/24 12:10:13;;;;;;;21.63;5.15;;;;;;;;;;5071364;28;20044;-68
2024/03/24 12:13:18;;;;;;;22.08;6.50;;;;;;;;;;5071398;28;20058;-68
2024/03/24 12:16:22;;;;;;;30.88;8.30;;;;;;;;;;5071749;28;20044;-68
2024/03/24 12:19:26;;;;;;;19.42;5.32;;;;;;;;;;5071708;28;20388;-68
2024/03/24 12:22:32;;;;;;;19.70;5.22;;;;;;;;;;5070795;28;20044;-68
2024/03/24 12:25:44;;;;;;;18.17;3.53;;;20.30;91.00;;;;;;5071319;28;20037;-68
2024/03/24 12:28:55;;;;;;;21.15;4.30;;;20.50;90.40;;;;;;5071228;28;20047;-68
2024/03/24 12:31:59;;;;;;;12.30;3.15;;;;;;;;;;5069699;28;20098;-68
2024/03/24 12:35:03;;;;;;;28.60;3.17;;;;;;;;;;5070934;28;20172;-67
2024/03/24 12:38:08;;;;;;;18.10;3.13;;;20.50;86.50;;;;;;5071280;28;20036;-69
2024/03/24 12:41:23;;;;;;;22.13;3.25;;;20.90;84.60;;;;;;5069921;28;20392;-69
2024/03/24 12:44:27;;;;;;;14.93;2.92;;;;;;;;;;5070951;28;20412;-70
2024/03/24 12:47:31;;;;;;;26.20;3.63;;;;;;;;;;5071014;28;20040;-68
2024/03/24 12:50:36;;;;;;;23.05;4.00;;;;;;;;;;5070883;28;20517;-68
2024/03/24 12:54:01;;;;;;;22.15;3.72;;;20.60;79.80;;;;;;5070810;28;20398;-67
2024/03/24 12:57:05;;;;;;;28.52;5.00;;;;;;;;;;5070728;28;20047;-68
2024/03/24 13:00:11;;;;;;;16.33;5.40;;;;;;;;;;5070946;28;20033;-69
2024/03/24 13:03:17;;;;;;;17.48;4.00;;;;;;;;;;5070700;28;20047;-68
2024/03/24 13:06:21;;;;;;;21.88;6.15;;;;;;;;;;5070945;28;20064;-68
2024/03/24 13:09:31;;;;;;;27.92;7.30;;;21.10;81.60;;;;;;5070751;28;20053;-68
2024/03/24 13:12:36;;;;;;;27.13;7.03;;;;;;;;;;5069958;28;20048;-69
2024/03/24 13:15:41;;;;;;;26.02;3.83;;;;;;;;;;5071004;28;20199;-69
2024/03/24 13:19:06;;;;;;;25.15;4.50;;;19.70;82.40;;;;;;5070769;28;20040;-68
2024/03/24 13:22:11;;;;;;;20.83;4.60;;;;;;;;;;5070233;28;20043;-68
2024/03/24 13:25:17;;;;;;;22.17;4.00;;;17.60;81.40;;;;;;5070532;28;20543;-68
2024/03/24 13:28:23;;;;;;;26.33;4.47;;;;;;;;;;5058625;28;20048;-68
2024/03/24 13:31:27;;;;;;;28.00;5.28;;;;;;;;;;5069828;28;20508;-69
2024/03/24 13:34:31;;;;;;;19.77;3.58;;;;;;;;;;5070443;28;20385;-69
2024/03/24 13:37:41;;;;;;;28.45;4.13;;;21.30;83.40;;;;;;5070658;28;20104;-68
2024/03/24 13:41:03;;;;;;;25.85;4.22;;;20.30;82.50;;;;;;5070189;28;20047;-68
2024/03/24 13:44:23;;;;;;;22.58;3.58;;;19.80;82.40;;;;;;5072256;28;20106;-68
2024/03/24 13:47:32;;;;;;;24.20;4.07;;;;;;;;;;5074346;28;20052;-69
2024/03/24 13:50:37;;;;;;;19.38;3.90;;;;;;;;;;5073310;28;20043;-68
2024/03/24 13:53:48;;;;;;;24.33;3.95;;;19.90;82.60;;;;;;5073850;28;20057;-68
2024/03/24 13:56:52;;;;;;;20.85;3.88;;;;;;;;;;5074244;28;20071;-68
2024/03/24 13:59:57;;;;;;;20.98;3.63;;;;;;;;;;5073930;28;20041;-68
2024/03/24 14:03:01;;;;;;;23.92;3.72;;;;;;;;;;5073255;28;20044;-69
2024/03/24 14:06:05;;;;;;;17.83;3.72;;;;;;;;;;5074091;28;20044;-68
2024/03/24 14:09:10;;;;;;;21.17;3.97;;;;;;;;;;5074095;28;20036;-69
2024/03/24 14:12:26;;;;;;;18.02;3.42;;;17.90;82.00;;;;;;5073921;28;20040;-69
2024/03/24 14:15:51;;;;;;;17.08;4.03;;;20.30;83.00;;;;;;5073624;28;20130;-68
2024/03/24 14:19:07;;;;;;;22.17;4.38;;;19.80;83.20;;;;;;5073607;28;20055;-68
2024/03/24 14:22:16;;;;;;;23.98;5.38;;;20.90;83.60;;;;;;5072996;28;20043;-69
2024/03/24 14:25:27;;;;;;;24.48;5.00;;;;;;;;;;5073585;28;20044;-68
2024/03/24 14:28:31;;;;;;;24.83;4.10;;;;;;;;;;5073366;28;20396;-69
2024/03/24 14:31:35;;;;;;;19.15;3.63;;;;;;;;;;5073273;28;20047;-68
2024/03/24 14:34:40;;;;;;;28.95;4.18;;;;;;;;;;5073151;28;20056;-68
2024/03/24 14:38:05;;;;;;;24.05;3.55;;;19.40;82.00;;;;;;5073525;28;20033;-69
2024/03/24 14:41:10;;;;;;;18.38;2.97;;;;;;;;;;5073222;28;20055;-68
2024/03/24 14:44:50;;;;;;;21.00;3.30;;;19.30;79.90;;;;;;5073087;28;20056;-69
2024/03/24 14:47:54;;;;;;;19.17;3.08;;;;;;;;;;5073396;28;20408;-69
2024/03/24 14:50:59;;;;;;;15.40;3.38;;;;;;;;;;5073077;28;20033;-68
2024/03/24 14:54:03;;;;;;;20.77;3.72;;;;;;;;;;5071830;28;20047;-68
2024/03/24 14:57:07;;;;;;;16.95;3.33;;;;;;;;;;5072903;28;20044;-69
2024/03/24 15:00:16;;;;;;;16.85;3.67;;;;;;;;;;5071831;28;20064;-68
2024/03/24 15:03:20;;;;;;;18.35;3.15;;;;;;;;;;5072801;28;20048;-68
2024/03/24 15:06:25;;;;;;;15.60;2.83;;;;;;;;;;5072974;28;20048;-68
2024/03/24 15:09:29;;;;;;;21.23;3.47;;;;;;;;;;5072733;28;20061;-68
2024/03/24 15:12:33;;;;;;;28.73;3.90;;;;;;;;;;5072769;28;20036;-68
2024/03/24 15:15:38;;;;;;;13.18;3.10;;;;;;;;;;5072200;28;20507;-74
2024/03/24 15:18:43;;;;;;;18.85;3.33;;;;;;;;;;5060228;28;20055;-68
2024/03/24 15:21:47;;;;;;;14.50;2.88;;;;;;;;;;5072279;28;20044;-69
2024/03/24 15:24:51;;;;;;;16.95;2.50;;;;;;;;;;5071504;28;20036;-69
2024/03/24 15:27:56;;;;;;;12.77;2.58;;;;;;;;;;5071996;28;20053;-69
2024/03/24 15:30:59;;;;;;;17.63;3.55;;;;;;;;;;5072039;28;20032;-68
2024/03/24 15:34:04;;;;;;;16.40;2.33;;;;;;;;;;5071857;28;20459;-68
2024/03/24 15:37:08;;;;;;;13.35;3.20;;;;;;;;;;5072153;28;20036;-69
2024/03/24 15:40:13;;;;;;;20.75;6.88;;;;;;;;;;5071737;28;20492;-69
2024/03/24 15:43:21;;;;;;;19.33;3.63;;;;;;;;;;5072187;28;20037;-68
2024/03/24 15:46:25;;;;;;;17.25;3.70;;;;;;;;;;5071925;28;20049;-69
2024/03/24 15:49:30;;;;;;;25.30;3.10;;;;;;;;;;5072154;28;20622;-69
2024/03/24 15:52:34;;;;;;;12.02;3.15;;;;;;;;;;5072075;28;20167;-69
2024/03/24 15:56:07;;;;;;;21.02;3.00;;;18.60;81.90;;;;;;5071793;28;20613;-69
2024/03/24 15:59:11;;;;;;;12.13;3.05;;;;;;;;;;5071962;28;20052;-69
2024/03/24 16:02:26;;;;;;;16.27;2.90;;;18.50;82.50;;;;;;5071829;28;20560;-69
2024/03/24 16:05:31;;;;;;;21.73;3.47;;;;;;;;;;5071512;28;20071;-68
2024/03/24 16:08:35;;;;;;;16.63;2.88;;;;;;;;;;5071616;28;20044;-69
2024/03/24 16:11:44;;;;;;;15.05;3.08;;;18.30;83.60;;;;;;5070369;28;20036;-68
2024/03/24 16:14:48;;;;;;;27.73;3.88;;;;;;;;;;5070249;28;20392;-69
2024/03/24 16:17:53;;;;;;;23.95;4.28;;;;;;;;;;5071334;28;20036;-69
2024/03/24 16:21:18;;;;;;;21.92;3.47;;;18.30;84.60;;;;;;5071485;28;20044;-68
2024/03/24 16:24:23;;;;;;;20.10;3.67;;;;;;;;;;5071337;28;20511;-69
2024/03/24 16:27:28;;;;;;;12.18;3.08;;;;;;;;;;5070198;28;20405;-68
2024/03/24 16:30:32;;;;;;;17.40;3.22;;;;;;;;;;5071104;28;20412;-69
2024/03/24 16:33:36;;;;;;;11.77;3.22;;;;;;;;;;5071305;28;20049;-69
2024/03/24 16:36:41;;;;;;;28.02;4.88;;;;;;;;;;5070859;28;20049;-68
2024/03/24 16:39:45;;;;;;;27.00;4.35;;;;;;;;;;5070945;28;20036;-69
2024/03/24 16:42:52;;;;;;;24.00;3.90;;;;;;;;;;5071135;28;20040;-68
2024/03/24 16:45:56;;;;;;;24.33;3.63;;;;;;;;;;5070936;28;20032;-68
2024/03/24 16:49:01;;;;;;;20.23;4.20;;;;;;;;;;5070749;28;20044;-69
2024/03/24 16:52:06;;;;;;;25.17;4.40;;;;;;;;;;5070808;28;20044;-69
2024/03/24 16:55:10;;;;;;;27.38;5.68;;;;;;;;;;5069962;28;20511;-69
2024/03/24 16:58:22;;;;;;;21.65;7.28;;;;;;;;;;5070656;28;20032;-68
2024/03/24 17:01:27;;;;;;;22.42;6.22;;;;;;;;;;5070847;28;20055;-69
2024/03/24 17:04:32;;;;;;;32.17;4.68;;;;;;;;;;5071009;28;20044;-69
2024/03/24 17:07:37;;;;;;;24.33;5.05;;;;;;;;;;5070523;28;20084;-68
2024/03/24 17:10:44;;;;;;;21.60;4.35;;;;;;;;;;5070610;28;20048;-69
2024/03/24 17:13:49;;;;;;;28.17;4.90;;;;;;;;;;5070679;28;20508;-69
2024/03/24 17:16:53;;;;;;;24.73;4.68;;;;;;;;;;5069655;28;20044;-69
2024/03/24 17:19:57;;;;;;;19.70;4.65;;;;;;;;;;5074889;28;20044;-69
2024/03/24 17:23:02;;;;;;;22.02;4.53;;;;;;;;;;5074455;28;20377;-69
2024/03/24 17:26:06;;;;;;;31.23;4.72;;;;;;;;;;5073439;28;20028;-69
2024/03/24 17:29:11;;;;;;;38.60;4.25;;;;;;;;;;5074660;28;20156;-68
2024/03/24 17:32:15;;;;;;;40.33;5.47;;;;;;;;;;5074657;28;20043;-68
2024/03/24 17:35:20;;;;;;;28.35;5.28;;;;;;;;;;5074493;28;20048;-69
2024/03/24 17:38:24;;;;;;;31.63;5.88;;;;;;;;;;5073717;28;20032;-68
2024/03/24 17:41:28;;;;;;;45.60;6.63;;;;;;;;;;5074029;28;20040;-68
2024/03/24 17:44:36;;;;;;;35.35;6.60;;;;;;;;;;5074059;28;20051;-68
2024/03/24 17:47:40;;;;;;;32.65;5.28;;;;;;;;;;5074477;28;20373;-68
2024/03/24 17:50:48;;;;;;;30.35;5.88;;;;;;;;;;5074342;28;20036;-68
2024/03/24 17:53:52;;;;;;;35.88;6.22;;;;;;;;;;5074542;28;20071;-68